Terminal Aerodrome Forecast
Issued by NWS Rapid City, SD

Home | Current Version | Previous Version | Text Only | Print | Product List | Glossary On
Versions: 1 2 3 4 5 6 7 8 9 10 11 12 13 14 15 16 17
000
FTUS43 KUNR 030700 AAA
TAFRAP
TAF AMD
KRAP 030748Z 0308/0406 34020G30KT 1SM -SN OVC012
     FM031000 35028G40KT 1/2SM SN BLSN OVC005
     FM031200 33028G40KT 1SM -SN BLSN SCT010 OVC040
     FM031800 33028G40KT P6SM OVC050
     FM040000 33011KT P6SM SCT250=

USA.gov is the U.S. government's official web portal to all federal, state and local government web resources and services.